Manns Choice, Pennsylvania
Current Conditions -  °F | °C
As of 8:35 AM on Friday 28 Nov 2014 (Local Time) from K2G9 Reporting Station
Light Snow Light Snow  
Wind Chill: 11°   Ceiling: 1300
Heat Index: 21°   Visibility: 2.5mi
Dew Point: 18°   Wind: 9mph
Humidity: 86%   Direction: 300°WNW
Pressure: 30.21"   Gusts: NA
Location:  40°N, 78.59°W
Report Text: K2G9 281335Z AUTO 30008KT 2 1/2SM -SN BKN013 OVC017 M06/M08 A3021 RMK AO2
Loading
Personal Weather Stations






























Interactive Weather Map New forecast layout! Learn more

10-Day Weather Forecast

Advertisements
Track Severe Weather on mobile